Time;durP1;ratioP1;P1;durP2;ratioP2;P2;SDS_P1;SDS_P2;PMS_P1;PMS_P2;Temp;Humidity;BMP_temperature;BMP_pressure;BME280_temperature;BME280_humidity;BME280_pressure;Samples;Min_cycle;Max_cycle;Signal;HPM_P1;HPM_P2
2022/05/16 00:01:34;;;;;;;50.85;17.20;;;;;;;14.73;100.00;98818.38;4916192;29;20050;-86
2022/05/16 00:04:00;;;;;;;43.55;16.73;;;;;;;14.69;100.00;98813.50;4935269;29;20028;-86
2022/05/16 00:06:25;;;;;;;49.50;18.63;;;;;;;14.63;100.00;98819.72;4916724;29;20064;-86
2022/05/16 00:08:53;;;;;;;39.00;18.15;;;;;;;14.67;100.00;98815.56;4941588;29;20020;-86
2022/05/16 00:11:19;;;;;;;40.47;17.98;;;;;;;14.61;100.00;98823.59;4913566;29;20036;-86
2022/05/16 00:13:48;;;;;;;41.83;18.48;;;;;;;14.59;100.00;98829.13;4913800;29;20040;-87
2022/05/16 00:16:14;;;;;;;43.35;17.35;;;;;;;14.62;100.00;98812.81;4914502;29;20527;-86
2022/05/16 00:18:39;;;;;;;34.83;15.85;;;;;;;14.58;100.00;98819.59;4908350;29;20048;-86
2022/05/16 00:21:05;;;;;;;44.38;18.17;;;;;;;14.66;100.00;98807.91;4916418;29;20028;-85
2022/05/16 00:23:30;;;;;;;40.30;15.50;;;;;;;14.62;100.00;98812.81;4916264;29;20455;-86
2022/05/16 00:25:56;;;;;;;39.95;14.50;;;;;;;14.59;100.00;98818.56;4915419;29;20451;-86
2022/05/16 00:28:22;;;;;;;35.95;13.80;;;;;;;14.48;100.00;98808.75;4916300;29;20385;-88
2022/05/16 00:30:51;;;;;;;42.10;14.15;;;;;;;14.46;100.00;98802.91;4916321;29;20091;-85
2022/05/16 00:33:16;;;;;;;46.38;15.48;;;;;;;14.60;100.00;98814.06;4916295;29;20048;-87
2022/05/16 00:35:45;;;;;;;40.42;15.55;;;;;;;14.51;100.00;98826.78;4916366;29;20038;-87
2022/05/16 00:38:10;;;;;;;43.40;16.08;;;;;;;14.51;100.00;98826.78;4916667;29;20495;-87
2022/05/16 00:40:36;;;;;;;35.75;16.63;;;;;;;14.62;100.00;98819.91;4938248;29;20036;-87
2022/05/16 00:43:04;;;;;;;41.00;14.75;;;;;;;14.64;100.00;98810.75;4917956;29;20079;-87
2022/05/16 00:45:33;;;;;;;40.35;14.98;;;;;;;14.29;100.00;98808.81;4915122;29;20512;-86
2022/05/16 00:47:59;;;;;;;40.72;14.88;;;;;;;14.34;100.00;98816.84;4915560;29;20056;-86
2022/05/16 00:50:27;;;;;;;46.97;15.73;;;;;;;14.50;100.00;98825.19;4915158;29;20074;-87
2022/05/16 00:52:55;;;;;;;44.65;14.57;;;;;;;14.56;100.00;98819.81;4939828;28;20491;-86
2022/05/16 00:55:25;;;;;;;42.33;15.60;;;;;;;14.59;100.00;98812.47;4914610;29;20044;-86
2022/05/16 00:57:54;;;;;;;39.38;15.80;;;;;;;14.56;100.00;98821.66;4899253;29;20032;-88
2022/05/16 01:00:30;;;;;;;33.55;15.38;;;;;;;14.54;100.00;98810.47;4913399;29;20035;-86
2022/05/16 01:05:43;;;;;;;41.47;14.43;;;;;;;14.07;100.00;98790.84;4916695;29;20501;-86
2022/05/16 01:08:14;;;;;;;38.72;15.32;;;;;;;13.88;100.00;98791.91;4916790;29;20028;-85
2022/05/16 01:10:44;;;;;;;50.33;15.15;;;;;;;13.84;100.00;98786.25;4913346;29;20036;-85
2022/05/16 01:13:10;;;;;;;42.65;15.05;;;;;;;13.84;100.00;98780.97;4916010;29;20131;-89
2022/05/16 01:15:43;;;;;;;40.72;14.75;;;;;;;13.92;100.00;98780.69;4899512;29;20044;-89
2022/05/16 01:18:12;;;;;;;47.22;15.05;;;;;;;13.74;100.00;98767.50;4916831;29;20070;-87
2022/05/16 01:20:49;;;;;;;40.70;15.48;;;;;;;13.79;100.00;98778.19;4915445;29;20036;-87
2022/05/16 01:23:20;;;;;;;39.47;15.23;;;;;;;13.75;100.00;98771.75;4914654;29;20047;-86
2022/05/16 01:25:48;;;;;;;45.97;16.70;;;;;;;13.59;100.00;98773.97;4916658;29;20064;-88
2022/05/16 01:28:18;;;;;;;37.58;16.63;;;;;;;13.52;100.00;98765.34;4941716;28;20051;-87
2022/05/16 01:30:48;;;;;;;50.92;18.83;;;;;;;13.57;100.00;98761.03;4914105;29;20024;-86
2022/05/16 01:33:14;;;;;;;43.92;19.70;;;;;;;13.68;100.00;98754.19;4916679;29;20124;-87
2022/05/16 01:35:40;;;;;;;43.65;18.45;;;;;;;13.75;100.00;98745.38;4916439;29;20142;-87
2022/05/16 01:38:26;;;;;;;46.55;19.10;;;;;;;13.66;100.00;98744.88;4920023;29;20531;-87
2022/05/16 01:40:58;;;;;;;49.85;19.60;;;;;;;13.75;100.00;98756.72;4916104;29;20032;-88
2022/05/16 01:43:27;;;;;;;44.50;17.92;;;;;;;13.71;100.00;98750.28;4916349;29;20094;-88
2022/05/16 01:45:53;;;;;;;41.25;18.45;;;;;;;13.70;100.00;98732.84;4914725;29;20028;-87
2022/05/16 01:48:19;;;;;;;49.03;19.17;;;;;;;13.82;100.00;98746.91;4914852;29;20043;-88
2022/05/16 01:50:46;;;;;;;50.20;19.13;;;;;;;13.73;100.00;98731.63;4916143;29;20032;-86
2022/05/16 01:53:12;;;;;;;38.75;18.48;;;;;;;13.65;100.00;98732.72;4915896;29;20518;-87
2022/05/16 01:55:38;;;;;;;42.92;19.17;;;;;;;13.56;100.00;98732.22;4915922;29;20039;-87
2022/05/16 01:58:05;;;;;;;36.58;19.02;;;;;;;13.60;100.00;98735.22;4915899;29;20083;-89
2022/05/16 02:00:31;;;;;;;45.78;20.13;;;;;;;13.64;100.00;98725.84;4915256;29;20364;-87
2022/05/16 02:02:57;;;;;;;46.33;20.88;;;;;;;13.65;100.00;98733.50;4913311;29;20144;-87
2022/05/16 02:05:24;;;;;;;42.33;20.27;;;;;;;13.66;100.00;98729.88;4914806;29;20047;-86
2022/05/16 02:07:50;;;;;;;39.67;21.90;;;;;;;13.67;100.00;98733.31;4914784;29;20398;-86
2022/05/16 02:10:17;;;;;;;39.30;21.00;;;;;;;13.74;100.00;98722.69;4913584;29;20028;-86
2022/05/16 02:12:47;;;;;;;39.20;22.75;;;;;;;13.73;100.00;98724.50;4915415;29;20036;-86
2022/05/16 02:15:17;;;;;;;47.85;25.08;;;;;;;13.71;100.00;98735.28;4914880;29;20032;-86
2022/05/16 02:17:43;;;;;;;42.25;25.55;;;;;;;13.69;100.00;98732.06;4915502;29;20497;-87
2022/05/16 02:20:10;;;;;;;53.75;27.05;;;;;;;13.80;100.00;98719.13;4914472;29;20418;-87
2022/05/16 02:25:20;;;;;;;49.47;23.35;;;;;;;13.79;100.00;98707.78;4914106;29;20040;-88
2022/05/16 02:27:47;;;;;;;39.88;23.20;;;;;;;13.88;100.00;98710.09;4915862;29;20032;-88
2022/05/16 02:30:14;;;;;;;43.53;24.67;;;;;;;13.89;100.00;98709.06;4914422;29;20139;-86
2022/05/16 02:32:43;;;;;;;39.70;22.98;;;;;;;13.82;100.00;98698.59;4913353;29;20032;-87
2022/05/16 02:35:09;;;;;;;38.13;22.83;;;;;;;13.82;100.00;98704.69;4915484;29;20111;-87
2022/05/16 02:37:35;;;;;;;39.08;20.70;;;;;;;13.79;100.00;98705.16;4913982;29;20032;-89
2022/05/16 02:40:01;;;;;;;38.00;18.58;;;;;;;13.80;100.00;98695.41;4915149;29;20027;-86
2022/05/16 02:42:26;;;;;;;35.28;20.23;;;;;;;13.87;100.00;98693.50;4914003;29;20352;-87
2022/05/16 02:44:52;;;;;;;33.92;20.13;;;;;;;13.94;100.00;98696.00;4914896;29;20036;-87
2022/05/16 02:47:22;;;;;;;36.28;21.00;;;;;;;13.87;100.00;98690.03;4915080;29;20372;-85
2022/05/16 02:49:48;;;;;;;32.38;19.13;;;;;;;13.92;100.00;98693.63;4914070;29;20043;-87
2022/05/16 02:52:15;;;;;;;34.75;18.38;;;;;;;13.99;100.00;98689.03;4914941;29;20034;-88
2022/05/16 02:54:41;;;;;;;32.33;17.85;;;;;;;13.83;100.00;98677.28;4915150;29;20036;-87
2022/05/16 02:57:08;;;;;;;23.73;15.82;;;;;;;13.93;100.00;98683.84;4913403;29;20123;-87
2022/05/16 02:59:35;;;;;;;27.25;14.13;;;;;;;13.92;100.00;98669.03;4915145;29;20111;-88
2022/05/16 03:02:02;;;;;;;24.25;14.48;;;;;;;13.88;100.00;98663.44;4914786;29;20160;-88
2022/05/16 03:04:27;;;;;;;22.83;14.43;;;;;;;13.90;100.00;98673.75;4914420;29;20039;-88
2022/05/16 03:06:54;;;;;;;20.45;13.52;;;;;;;13.90;100.00;98664.00;4914369;29;20032;-88
2022/05/16 03:09:21;;;;;;;18.67;11.88;;;;;;;13.80;100.00;98663.75;4910208;29;20036;-90
2022/05/16 03:11:52;;;;;;;13.82;10.00;;;;;;;13.81;100.00;98666.16;4914393;29;20387;-88
2022/05/16 03:14:17;;;;;;;12.88;9.60;;;;;;;13.80;100.00;98672.47;4936270;28;20047;-87
2022/05/16 03:16:43;;;;;;;13.02;9.27;;;;;;;13.78;100.00;98666.63;4896870;29;20388;-87
2022/05/16 03:19:09;;;;;;;12.85;9.10;;;;;;;13.79;100.00;98652.41;4914759;29;20059;-87
2022/05/16 03:21:35;;;;;;;16.50;9.55;;;;;;;13.70;100.00;98659.00;4914633;29;20043;-87
2022/05/16 03:24:01;;;;;;;12.45;9.13;;;;;;;13.48;100.00;98648.16;4913501;29;20028;-89
2022/05/16 03:26:26;;;;;;;11.43;8.52;;;;;;;13.56;100.00;98650.47;4914723;29;20467;-87
2022/05/16 03:28:53;;;;;;;19.17;9.45;;;;;;;13.65;100.00;98650.97;4914424;29;20052;-88
2022/05/16 03:31:19;;;;;;;16.60;10.60;;;;;;;13.81;100.00;98649.53;4913267;29;20032;-87
2022/05/16 03:33:45;;;;;;;15.75;10.07;;;;;;;13.82;100.00;98662.50;4913458;29;20035;-86
2022/05/16 03:36:11;;;;;;;16.25;10.07;;;;;;;13.85;100.00;98651.50;4914768;29;20399;-88
2022/05/16 03:41:21;;;;;;;17.90;9.50;;;;;;;13.99;100.00;98635.47;4913694;29;20088;-89
2022/05/16 03:43:47;;;;;;;15.18;10.35;;;;;;;13.99;100.00;98635.47;4914550;29;20028;-87
2022/05/16 03:46:13;;;;;;;15.63;10.68;;;;;;;13.92;100.00;98634.75;4914687;29;20036;-87
2022/05/16 03:48:39;;;;;;;12.73;9.43;;;;;;;13.91;100.00;98626.03;4914639;29;20020;-87
2022/05/16 03:51:07;;;;;;;12.52;10.00;;;;;;;13.91;100.00;98617.31;4913037;29;20028;-88
2022/05/16 03:53:36;;;;;;;19.45;11.32;;;;;;;13.90;100.00;98620.97;4914185;29;20036;-87
2022/05/16 03:56:03;;;;;;;14.32;9.95;;;;;;;13.90;100.00;98631.53;4912952;29;20419;-89
2022/05/16 03:58:29;;;;;;;15.52;10.45;;;;;;;13.88;100.00;98617.78;4914249;29;20032;-87
2022/05/16 04:00:58;;;;;;;19.88;12.00;;;;;;;13.87;100.00;98616.16;4913363;29;20034;-87
2022/05/16 04:03:24;;;;;;;15.85;11.77;;;;;;;13.84;100.00;98612.94;4912484;29;20042;-86
2022/05/16 04:05:50;;;;;;;22.60;12.70;;;;;;;13.91;100.00;98612.03;4890202;29;20035;-88
2022/05/16 04:08:16;;;;;;;20.35;13.05;;;;;;;13.98;100.00;98607.47;4913210;29;20092;-89
2022/05/16 04:10:42;;;;;;;19.17;12.70;;;;;;;13.89;100.00;98608.81;4912892;29;20439;-88
2022/05/16 04:13:08;;;;;;;18.05;12.25;;;;;;;13.97;100.00;98600.59;4914318;29;20068;-88
2022/05/16 04:15:33;;;;;;;22.55;13.35;;;;;;;13.91;100.00;98601.47;4914354;29;20054;-87
2022/05/16 04:17:59;;;;;;;17.58;11.82;;;;;;;13.98;100.00;98602.19;4912916;29;20032;-88
2022/05/16 04:20:25;;;;;;;20.35;13.30;;;;;;;13.99;100.00;98586.13;4914622;29;20036;-87
2022/05/16 04:22:50;;;;;;;21.02;13.38;;;;;;;13.98;100.00;98587.16;4913060;29;20032;-87
2022/05/16 04:25:18;;;;;;;22.90;13.82;;;;;;;13.98;100.00;98596.91;4896920;29;20420;-87
2022/05/16 04:27:44;;;;;;;21.30;14.82;;;;;;;14.02;100.00;98600.72;4913931;29;20032;-88
2022/05/16 04:30:11;;;;;;;21.02;13.93;;;;;;;14.04;100.00;98595.19;4917561;29;20028;-88
2022/05/16 04:32:37;;;;;;;21.27;15.75;;;;;;;14.05;100.00;98596.78;4917622;29;20497;-88
2022/05/16 04:35:03;;;;;;;24.35;15.63;;;;;;;14.10;100.00;98596.94;4940159;29;20044;-88
2022/05/16 04:37:32;;;;;;;24.05;15.85;;;;;;;14.10;100.00;98595.09;4915829;29;20456;-90
2022/05/16 04:40:04;;;;;;;24.67;16.83;;;;;;;14.08;100.00;98591.88;4916856;29;20394;-89
2022/05/16 04:42:42;;;;;;;22.38;16.10;;;;;;;14.11;100.00;98580.84;4918551;29;20119;-89
2022/05/16 04:45:20;;;;;;;29.77;16.85;;;;;;;14.15;100.00;98583.84;4916950;29;20062;-89
2022/05/16 04:47:49;;;;;;;23.20;16.40;;;;;;;14.23;100.00;98601.19;4917216;29;20032;-88
2022/05/16 04:50:18;;;;;;;33.00;18.30;;;;;;;14.21;100.00;98609.31;4922324;29;20130;-87
2022/05/16 04:52:44;;;;;;;26.08;17.92;;;;;;;14.18;100.00;98607.13;4923691;29;20060;-89
2022/05/16 04:55:12;;;;;;;28.02;18.30;;;;;;;14.24;100.00;98610.69;4917270;29;20092;-87
2022/05/16 04:57:38;;;;;;;26.15;17.67;;;;;;;14.24;100.00;98616.78;4915349;29;20107;-87
2022/05/16 05:00:05;;;;;;;35.97;20.42;;;;;;;14.25;100.00;98612.31;4915018;29;20040;-88
2022/05/16 05:02:31;;;;;;;28.52;19.38;;;;;;;14.27;100.00;98621.63;4914340;29;20058;-87
2022/05/16 05:04:58;;;;;;;31.38;18.75;;;;;;;14.34;100.00;98621.47;4915729;29;20402;-87
2022/05/16 05:07:25;;;;;;;30.33;19.63;;;;;;;14.39;100.00;98628.72;4917108;29;20043;-87
2022/05/16 05:15:19;;;;;;;32.00;21.15;;;;;;;14.34;100.00;98608.28;4914520;29;20119;-87
2022/05/16 05:17:45;;;;;;;33.97;20.05;;;;;;;14.43;100.00;98614.03;4915480;29;20156;-87
2022/05/16 05:20:17;;;;;;;29.25;20.65;;;;;;;14.50;100.00;98620.00;4916534;29;20060;-87
2022/05/16 05:22:47;;;;;;;30.90;20.80;;;;;;;14.35;100.00;98601.19;4919198;29;20103;-89
2022/05/16 05:25:17;;;;;;;35.60;20.90;;;;;;;14.59;100.00;98617.00;4915309;29;20043;-88
2022/05/16 05:27:44;;;;;;;31.90;22.30;;;;;;;14.61;100.00;98615.75;4916582;29;20379;-88
2022/05/16 05:30:21;;;;;;;38.67;23.13;;;;;;;14.61;100.00;98634.25;4916306;29;20083;-87
2022/05/16 05:32:47;;;;;;;33.78;22.20;;;;;;;14.63;100.00;98624.25;4936245;29;20047;-87
2022/05/16 05:35:14;;;;;;;38.00;22.02;;;;;;;14.66;100.00;98626.41;4916450;29;20043;-85
2022/05/16 05:37:40;;;;;;;36.13;22.60;;;;;;;14.72;100.00;98637.94;4915118;29;20043;-87
2022/05/16 05:40:15;;;;;;;39.20;23.10;;;;;;;14.74;100.00;98630.56;4913977;29;20032;-87
2022/05/16 05:42:46;;;;;;;37.53;23.25;;;;;;;14.77;100.00;98626.69;4915287;29;20083;-87
2022/05/16 05:45:12;;;;;;;34.75;21.98;;;;;;;14.84;100.00;98630.00;4914939;29;20056;-87
2022/05/16 05:47:37;;;;;;;65.60;29.15;;;;;;;14.84;100.00;98620.25;4915176;29;20051;-88
2022/05/16 05:50:06;;;;;;;54.53;29.67;;;;;;;14.98;100.00;98631.34;4914934;29;20032;-87
2022/05/16 05:52:32;;;;;;;109.72;35.83;;;;;;;14.96;100.00;98612.28;4915522;29;20119;-86
2022/05/16 05:54:58;;;;;;;46.05;25.08;;;;;;;14.89;100.00;98624.81;4915930;29;20110;-87
2022/05/16 05:57:25;;;;;;;46.00;24.25;;;;;;;15.02;100.00;98636.16;4897057;29;20123;-87
2022/05/16 05:59:52;;;;;;;57.00;29.30;;;;;;;14.97;100.00;98635.03;4914225;29;20036;-88
2022/05/16 06:02:18;;;;;;;46.08;29.70;;;;;;;14.86;100.00;98646.41;4914523;29;20052;-87
2022/05/16 06:04:45;;;;;;;53.83;32.47;;;;;;;14.96;100.00;98651.91;4914814;29;20024;-87
2022/05/16 06:07:11;;;;;;;48.95;28.05;;;;;;;15.01;100.00;98645.91;4915275;29;20028;-89
2022/05/16 06:09:37;;;;;;;43.63;24.88;;;;;;;15.04;100.00;98642.84;4913995;29;20052;-88
2022/05/16 06:12:05;;;;;;;40.50;25.67;;;;;;;15.08;100.00;98640.50;4915950;29;20123;-89
2022/05/16 06:14:31;;;;;;;39.00;24.45;;;;;;;14.99;100.00;98635.59;4914990;29;20040;-90
2022/05/16 06:16:57;;;;;;;46.15;24.67;;;;;;;15.09;100.00;98642.09;4914782;29;20390;-89
2022/05/16 06:19:23;;;;;;;41.15;25.45;;;;;;;15.16;100.00;98641.97;4913381;29;20039;-88
2022/05/16 06:21:52;;;;;;;43.35;24.58;;;;;;;15.18;100.00;98639.91;4916646;29;20583;-89
2022/05/16 06:27:17;;;;;;;45.80;24.63;;;;;;;15.33;100.00;98642.03;4924643;29;20157;-89
2022/05/16 06:29:43;;;;;;;64.15;29.55;;;;;;;15.31;100.00;98638.81;4916076;29;20120;-90
2022/05/16 06:32:08;;;;;;;42.40;25.85;;;;;;;15.35;100.00;98637.34;4915944;29;20119;-90
2022/05/16 06:34:36;;;;;;;46.88;25.77;;;;;;;15.39;100.00;98646.41;4908793;29;20047;-91
2022/05/16 06:37:02;;;;;;;46.28;25.95;;;;;;;15.54;100.00;98659.09;4914492;29;20044;-88
2022/05/16 06:39:28;;;;;;;48.78;26.33;;;;;;;15.47;100.00;98646.00;4913809;29;20040;-86
2022/05/16 06:41:54;;;;;;;50.70;26.83;;;;;;;15.54;100.00;98649.34;4913628;29;20388;-87
2022/05/16 06:44:20;;;;;;;61.45;30.45;;;;;;;15.70;100.00;98636.34;4914594;29;20116;-88
2022/05/16 06:46:45;;;;;;;59.40;29.08;;;;;;;15.78;100.00;98630.69;4912674;29;20426;-87
2022/05/16 06:49:11;;;;;;;43.50;25.40;;;;;;;15.68;100.00;98633.97;4912677;29;20435;-89
2022/05/16 06:51:37;;;;;;;49.72;24.65;;;;;;;15.85;100.00;98633.19;4914762;29;20036;-88
2022/05/16 06:54:04;;;;;;;47.42;24.13;;;;;;;15.98;100.00;98637.41;4913008;29;20383;-87
2022/05/16 06:56:30;;;;;;;43.72;22.88;;;;;;;16.10;100.00;98635.47;4912340;29;20399;-87
2022/05/16 06:58:56;;;;;;;44.92;23.30;;;;;;;16.11;100.00;98645.03;4915052;29;20033;-88
2022/05/16 07:01:21;;;;;;;36.15;21.17;;;;;;;16.09;100.00;98641.81;4935813;29;20073;-89
2022/05/16 07:03:47;;;;;;;46.00;23.38;;;;;;;16.17;100.00;98639.81;4915214;29;20028;-88
2022/05/16 07:06:14;;;;;;;48.63;24.13;;;;;;;16.09;100.00;98644.44;4915849;29;20115;-89
2022/05/16 07:08:41;;;;;;;55.53;25.83;;;;;;;16.06;100.00;98660.81;4915183;29;20513;-90
2022/05/16 07:11:09;;;;;;;49.50;25.17;;;;;;;16.05;100.00;98659.22;4916411;29;20036;-90
2022/05/16 07:13:34;;;;;;;53.67;25.20;;;;;;;15.98;100.00;98667.31;4915416;29;20039;-89
2022/05/16 07:16:01;;;;;;;48.45;23.73;;;;;;;16.02;100.00;98643.03;4940390;29;20649;-89
2022/05/16 07:18:27;;;;;;;46.58;22.98;;;;;;;16.27;100.00;98661.13;4896076;29;20032;-88
2022/05/16 07:20:54;;;;;;;40.63;23.42;;;;;;;16.40;100.00;98666.13;4915363;29;20087;-89
2022/05/16 07:23:19;;;;;;;43.83;22.83;;;;;;;16.38;100.00;98662.91;4915200;29;20024;-89
2022/05/16 07:28:29;;;;;;;49.58;24.25;;;;;;;16.23;100.00;98682.03;4939855;28;20072;-89
2022/05/16 07:30:55;;;;;;;44.58;23.38;;;;;;;16.23;100.00;98687.31;4915860;29;20391;-89
2022/05/16 07:33:21;;;;;;;42.67;23.30;;;;;;;16.19;100.00;98680.09;4914822;29;20375;-90
2022/05/16 07:35:50;;;;;;;44.33;22.35;;;;;;;16.16;100.00;98676.06;4914206;29;20402;-88
2022/05/16 07:38:18;;;;;;;51.60;24.73;;;;;;;16.30;100.00;98681.84;4913921;29;20073;-89
2022/05/16 07:40:43;;;;;;;44.40;24.35;;;;;;;16.28;100.00;98674.16;4919786;29;20039;-89
2022/05/16 07:43:09;;;;;;;54.72;26.65;;;;;;;16.27;100.00;98677.84;4914995;29;20040;-89
2022/05/16 07:45:34;;;;;;;53.65;27.55;;;;;;;16.30;100.00;98681.84;4913609;29;20055;-89
2022/05/16 07:48:03;;;;;;;59.53;26.75;;;;;;;16.25;100.00;98685.22;4913369;29;20032;-89
2022/05/16 07:50:32;;;;;;;51.95;26.67;;;;;;;16.33;100.00;98691.97;4914927;29;20048;-89
2022/05/16 07:52:58;;;;;;;62.33;27.58;;;;;;;16.18;100.00;98679.28;4913891;29;20032;-90
2022/05/16 07:55:25;;;;;;;53.60;25.67;;;;;;;16.27;100.00;98687.63;4912127;29;20043;-88
2022/05/16 07:57:51;;;;;;;53.08;26.02;;;;;;;16.30;100.00;98692.44;4901435;29;20029;-88
2022/05/16 08:00:19;;;;;;;54.55;27.23;;;;;;;16.31;100.00;98688.78;4912319;29;20043;-89
2022/05/16 08:02:45;;;;;;;60.75;27.00;;;;;;;16.34;100.00;98685.63;4923337;29;20503;-89
2022/05/16 08:05:14;;;;;;;47.25;25.23;;;;;;;16.42;100.00;98690.53;4917308;29;20051;-89
2022/05/16 08:10:30;;;;;;;56.83;26.35;;;;;;;16.24;100.00;98701.34;4916892;29;20087;-89
2022/05/16 08:13:03;;;;;;;55.22;26.33;;;;;;;16.24;100.00;98704.81;4917061;29;20027;-90
2022/05/16 08:15:29;;;;;;;56.03;25.85;;;;;;;16.15;100.00;98697.50;4939091;29;20083;-89
2022/05/16 08:17:57;;;;;;;41.78;24.13;;;;;;;16.24;100.00;98693.41;4908747;29;20439;-89
2022/05/16 08:20:23;;;;;;;61.33;25.98;;;;;;;16.18;100.00;98689.06;4917955;29;20160;-89
2022/05/16 08:22:51;;;;;;;48.10;24.90;;;;;;;16.15;100.00;98684.25;4916980;29;20028;-89
2022/05/16 08:25:16;;;;;;;55.22;27.98;;;;;;;16.15;100.00;98690.34;4916235;29;20028;-88
2022/05/16 08:27:42;;;;;;;47.53;25.92;;;;;;;16.11;100.00;98695.34;4917115;29;20080;-89
2022/05/16 08:30:09;;;;;;;47.08;25.10;;;;;;;16.18;100.00;98691.72;4940479;28;20160;-90
2022/05/16 08:32:35;;;;;;;42.95;25.77;;;;;;;16.21;100.00;98691.25;4917668;29;20047;-90
2022/05/16 08:35:03;;;;;;;57.17;28.23;;;;;;;16.29;100.00;98690.84;4917587;29;20028;-89
2022/05/16 08:40:14;;;;;;;59.28;30.17;;;;;;;16.51;100.00;98708.69;4917444;29;20471;-89
2022/05/16 08:42:55;;;;;;;53.05;27.95;;;;;;;16.73;100.00;98690.16;4917633;29;20501;-88
2022/05/16 08:45:33;;;;;;;54.15;27.70;;;;;;;17.07;100.00;98690.13;4914918;29;20368;-87
2022/05/16 08:48:17;;;;;;;50.17;27.13;;;;;;;17.46;100.00;98694.56;4916300;29;20032;-87
2022/05/16 08:50:48;;;;;;;48.33;26.25;;;;;;;17.72;100.00;98705.47;4910573;29;20071;-88
2022/05/16 08:53:40;;;;;;;52.47;25.73;;;;;;;17.79;100.00;98703.41;4921538;29;21696;-88
2022/05/16 08:56:10;;;;;;;44.30;24.15;;;;;;;17.85;100.00;98694.41;4917068;29;20079;-88
2022/05/16 08:59:20;;;;;;;47.70;25.42;;;;;;;18.01;100.00;98707.84;4916506;29;20025;-89
2022/05/16 09:01:54;;;;;;;42.28;23.83;;;;;;;18.17;100.00;98689.44;4917408;29;20079;-88
2022/05/16 09:04:25;;;;;;;47.33;24.08;;;;;;;18.59;100.00;98707.28;4917446;29;20036;-88
2022/05/16 09:07:11;;;;;;;48.03;26.23;;;;;;;18.89;100.00;98700.56;4917367;29;20110;-88
2022/05/16 09:09:52;;;;;;;51.30;25.92;;;;;;;19.04;100.00;98701.72;4910441;29;20090;-88
2022/05/16 09:12:47;;;;;;;42.88;24.63;;;;;;;19.05;100.00;98708.63;4915811;29;20032;-88
2022/05/16 09:15:35;;;;;;;53.75;25.20;;;;;;;18.96;100.00;98717.06;4898334;29;20059;-88
2022/05/16 09:18:06;;;;;;;44.20;24.85;;;;;;;18.88;100.00;98720.25;4915231;29;20043;-88
2022/05/16 09:20:58;;;;;;;45.40;24.33;;;;;;;18.64;100.00;98717.94;4915468;29;20082;-88
2022/05/16 09:23:38;;;;;;;48.17;24.58;;;;;;;18.64;100.00;98731.22;4914504;29;20398;-89
2022/05/16 09:26:55;;;;;;;49.35;24.85;;;;;;;18.81;100.00;98724.97;4940551;28;20088;-88
2022/05/16 09:29:26;;;;;;;52.08;25.38;;;;;;;18.94;100.00;98724.50;4924295;29;20048;-89
2022/05/16 09:31:56;;;;;;;53.75;24.90;;;;;;;19.05;100.00;98729.91;4913984;29;20035;-89
2022/05/16 09:34:22;;;;;;;47.50;24.70;;;;;;;19.08;100.00;98724.88;4940853;28;20067;-89
2022/05/16 09:36:49;;;;;;;44.38;25.35;;;;;;;18.92;100.00;98739.13;4916738;29;20056;-89
2022/05/16 09:39:24;;;;;;;40.42;23.95;;;;;;;18.76;100.00;98735.56;4916948;29;20041;-88
2022/05/16 09:42:02;;;;;;;44.08;24.90;;;;;;;18.50;100.00;98740.72;4940223;29;20099;-88
2022/05/16 09:44:32;;;;;;;45.70;24.88;;;;;;;18.39;100.00;98750.47;4915307;29;20036;-88
2022/05/16 09:47:17;;;;;;;41.45;24.48;;;;;;;18.41;100.00;98757.09;4915394;29;20486;-88
2022/05/16 09:49:43;;;;;;;49.58;26.10;;;;;;;18.24;100.00;98743.94;4920504;29;20038;-88
2022/05/16 09:52:20;;;;;;;48.65;26.58;;;;;;;18.46;100.00;98739.59;4914907;29;20032;-88
2022/05/16 09:54:59;;;;;;;53.25;26.25;;;;;;;18.63;100.00;98753.56;4914826;29;20043;-88
2022/05/16 09:57:25;;;;;;;53.85;27.95;;;;;;;18.74;100.00;98750.97;4914753;29;20060;-88
2022/05/16 09:59:58;;;;;;;48.20;28.23;;;;;;;19.00;100.00;98756.47;4915841;29;20040;-88
2022/05/16 10:02:29;;;;;;;52.55;27.40;;;;;;;19.35;100.00;98760.41;4935444;29;20136;-88
2022/05/16 10:05:29;;;;;;;55.40;27.70;;;;;;;19.57;100.00;98767.41;4914677;29;20035;-88
2022/05/16 10:08:11;;;;;;;47.55;25.30;;;;;;;19.49;100.00;98766.03;4914309;29;20044;-88
2022/05/16 10:10:40;;;;;;;50.55;28.30;;;;;;;19.17;100.00;98781.06;4915933;29;20036;-88
2022/05/16 10:13:06;;;;;;;45.78;26.83;;;;;;;19.12;100.00;98754.44;4917890;29;20028;-88
2022/05/16 10:15:33;;;;;;;52.80;27.73;;;;;;;19.10;100.00;98765.31;4923677;29;20036;-89
2022/05/16 10:18:02;;;;;;;45.72;27.10;;;;;;;19.28;100.00;98760.63;4914373;29;20039;-88
2022/05/16 10:20:33;;;;;;;53.60;28.02;;;;;;;19.39;100.00;98772.13;4913448;29;20040;-88
2022/05/16 10:23:05;;;;;;;47.90;28.10;;;;;;;19.35;100.00;98771.03;4915796;29;20046;-88
2022/05/16 10:25:41;;;;;;;54.25;29.20;;;;;;;19.63;100.00;98772.50;4905803;29;20087;-88
2022/05/16 10:28:11;;;;;;;46.58;28.10;;;;;;;19.73;100.00;98765.59;4923528;29;20147;-87
2022/05/16 10:33:26;;;;;;;44.35;26.48;;;;;;;19.92;100.00;98780.06;4914566;29;20028;-87
2022/05/16 10:36:13;;;;;;;43.42;24.30;;;;;;;19.94;100.00;98777.13;4913966;29;20069;-88
2022/05/16 10:38:38;;;;;;;44.97;27.20;;;;;;;20.02;100.00;98789.94;4920078;29;20047;-88
2022/05/16 10:41:11;;;;;;;44.70;27.33;;;;;;;20.21;100.00;98792.09;4897978;29;20411;-88
2022/05/16 10:43:55;;;;;;;46.38;28.25;;;;;;;20.85;100.00;98779.34;4914117;29;20079;-88
2022/05/16 10:46:32;;;;;;;45.33;25.95;;;;;;;21.17;100.00;98775.53;4913240;29;20040;-87
2022/05/16 10:49:10;;;;;;;49.30;26.85;;;;;;;21.40;100.00;98773.31;4914400;29;20115;-88
2022/05/16 10:51:48;;;;;;;39.92;24.85;;;;;;;21.61;100.00;98789.28;4905709;29;20071;-89
2022/05/16 10:54:27;;;;;;;43.15;26.30;;;;;;;21.34;100.00;98779.75;4922979;29;20046;-88
2022/05/16 10:57:31;;;;;;;48.50;27.77;;;;;;;21.32;100.00;98772.03;4914489;29;20032;-88
2022/05/16 11:00:20;;;;;;;41.38;24.88;;;;;;;21.39;100.00;98774.41;4914638;29;20107;-89
2022/05/16 11:03:13;;;;;;;46.08;28.08;;;;;;;21.14;100.00;98789.44;4915047;29;20173;-88
2022/05/16 11:05:59;;;;;;;42.08;29.17;;;;;;;20.72;100.00;98779.88;4912992;29;20040;-88
2022/05/16 11:08:40;;;;;;;49.70;30.83;;;;;;;20.86;100.00;98791.63;4914525;29;20039;-88
2022/05/16 11:11:28;;;;;;;39.97;25.83;;;;;;;20.66;100.00;98795.88;4913575;29;20068;-88
2022/05/16 11:14:11;;;;;;;39.13;26.23;;;;;;;20.64;100.00;98798.00;4901240;29;20107;-88
2022/05/16 11:16:39;;;;;;;44.42;27.85;;;;;;;20.45;100.00;98795.06;4938332;28;20032;-88
2022/05/16 11:19:31;;;;;;;44.88;26.20;;;;;;;20.23;100.00;98790.78;4912448;29;20060;-88
2022/05/16 11:22:21;;;;;;;41.42;26.80;;;;;;;20.32;100.00;98809.72;4913528;29;20546;-87
2022/05/16 11:25:12;;;;;;;40.75;25.92;;;;;;;20.30;100.00;98811.84;4906242;29;20175;-88
2022/05/16 11:27:45;;;;;;;46.58;26.65;;;;;;;20.08;100.00;98812.06;4913133;29;20059;-87
2022/05/16 11:30:37;;;;;;;40.30;25.58;;;;;;;20.03;100.00;98807.50;4938106;29;20039;-88
2022/05/16 11:33:31;;;;;;;40.50;26.35;;;;;;;20.07;100.00;98813.94;4914191;29;20043;-88
2022/05/16 11:36:06;;;;;;;39.95;26.23;;;;;;;19.88;100.00;98815.47;4914997;29;20028;-88
2022/05/16 11:38:51;;;;;;;38.47;24.40;;;;;;;19.72;100.00;98811.91;4916862;29;20061;-88
2022/05/16 11:41:48;;;;;;;44.03;27.23;;;;;;;19.73;100.00;98821.50;4917048;29;20095;-88
2022/05/16 11:44:41;;;;;;;35.90;24.70;;;;;;;20.30;100.00;98814.50;4916861;29;20069;-88
2022/05/16 11:47:16;;;;;;;34.50;23.73;;;;;;;20.80;100.00;98814.03;4916642;29;20063;-89
2022/05/16 11:50:03;;;;;;;37.15;23.08;;;;;;;21.62;100.00;98812.25;4923676;29;20056;-89
2022/05/16 11:52:34;;;;;;;37.10;23.20;;;;;;;22.47;100.00;98804.34;4940452;29;20043;-88